Gilman, VT (05904)

5:51 PM EST on November 28, 2014 (GMT -0500)
Dalton Mountain | Change Station
CLOSE
Current Station
Personal Weather Station
Location: Dalton, NH
Elevation: 1473 ft
Nearby Weather Stations

Elev 1473 ft 44.39 °N, 71.70 °W | Updated 4 seconds ago

Mostly Cloudy
Mostly Cloudy
21.8 °F
Feels Like 22 °F
N
0.0
Wind Variable Wind from SSE
Gusts 3.0 mph

Today
High -- | Low -- °F
--% Chance of Precip.
Yesterday
High -- | Low -- °F
Precip. -- in
6:59 AM 4:10 PM
Waxing Crescent, 45% visible
Pressure 30.11 in
Visibility 10.0 miles
Clouds Few 2900 ft
Scattered Clouds 3800 ft
Overcast 4900 ft
Windchill 22 °F
Dew Point 12 °F
Humidity 65%
Rainfall 0.00 in
Snow Depth Not available.
UV 0 out of 12
Pollen .10 out of 12
Air Quality Not available.
Flu Activity Not available.
METAR KHIE 282152Z AUTO 00000KT 10SM FEW029 SCT038 OVC049 M06/M08 A3006 RMK AO2 SLP196 T10561078

More Conditions Fewer Conditions

Pressure 30.11 in
Visibility 10.0 miles
Clouds Few 2900 ft
Scattered Clouds 3800 ft
Overcast 4900 ft
Windchill 22 °F
Dew Point 12 °F
Humidity 65%
Rainfall 0.00 in
Snow Depth Not available.
UV 0 out of 12
Pollen .10 out of 12
Air Quality Not available.
Flu Activity Not available.
METAR KHIE 282152Z AUTO 00000KT 10SM FEW029 SCT038 OVC049 M06/M08 A3006 RMK AO2 SLP196 T10561078

More Conditions Fewer Conditions

10-Day Weather Forecast

Almanac

Astronomy

Nov. 28, 2014 Rise Set
Actual Time
Civil Twilight
Nautical Twilight
Astronomical Twilight
Moon
Length of Visible Light
Length of Day
Tomorrow will be .
, % of the Moon is Illuminated

Today's Extremes

State Highs State Lows

Community

WunderPhotos

Upload Photos

1,774,323 photos uploaded!

WunderBlogs® & News

Nearby

Air Quality

  Air Quality AQ Index Pollutant
Not available.

Snow Depth

Station Depth Elevation

Earthquake Activity

City Distance Mag. Time & Date
Minimum magnitude displayed is 2.5.

Coastal Water Temperatures

Place Temperature

Nearby Weather Stations